createdAt,value
2023-02-28T00:01:11.040Z,3.52
2023-02-28T00:03:38.722Z,3.60
2023-02-28T00:06:08.171Z,3.85
2023-02-28T00:08:35.586Z,4.27
2023-02-28T00:11:04.656Z,3.87
2023-02-28T00:13:35.466Z,3.52
2023-02-28T00:16:05.356Z,3.52
2023-02-28T00:18:33.039Z,4.02
2023-02-28T00:21:00.924Z,4.95
2023-02-28T00:23:28.898Z,4.84
2023-02-28T00:25:56.611Z,4.91
2023-02-28T00:28:24.514Z,5.20
2023-02-28T00:30:53.600Z,5.38
2023-02-28T00:33:21.339Z,4.53
2023-02-28T00:35:49.739Z,4.81
2023-02-28T00:38:17.602Z,5.11
2023-02-28T00:40:45.109Z,4.46
2023-02-28T00:43:12.545Z,4.73
2023-02-28T00:45:39.991Z,4.91
2023-02-28T00:48:08.885Z,4.98
2023-02-28T00:50:36.326Z,5.12
2023-02-28T00:53:03.828Z,5.46
2023-02-28T00:55:31.257Z,5.58
2023-02-28T00:57:58.736Z,5.33
2023-02-28T01:00:26.182Z,5.02
2023-02-28T01:02:53.645Z,5.03
2023-02-28T01:05:22.421Z,4.81
2023-02-28T01:07:49.892Z,5.22
2023-02-28T01:10:17.989Z,4.76
2023-02-28T01:12:45.472Z,5.08
2023-02-28T01:15:15.469Z,4.92
2023-02-28T01:17:42.972Z,4.81
2023-02-28T01:20:11.914Z,4.61
2023-02-28T01:22:41.016Z,4.94
2023-02-28T01:25:09.570Z,4.90
2023-02-28T01:27:37.072Z,4.95
2023-02-28T01:30:04.979Z,4.87
2023-02-28T01:32:32.420Z,5.11
2023-02-28T01:34:59.856Z,5.22
2023-02-28T01:37:27.349Z,5.44
2023-02-28T01:39:56.141Z,5.22
2023-02-28T01:42:23.575Z,5.36
2023-02-28T01:45:05.360Z,5.22
2023-02-28T01:47:44.397Z,5.44
2023-02-28T01:50:22.513Z,5.24
2023-02-28T01:52:50.506Z,4.04
2023-02-28T01:55:20.580Z,4.42
2023-02-28T01:57:52.743Z,4.97
2023-02-28T02:00:24.186Z,5.17
2023-02-28T02:02:57.345Z,5.22
2023-02-28T02:05:26.733Z,5.26
2023-02-28T02:07:57.751Z,5.14
2023-02-28T02:10:31.305Z,5.02
2023-02-28T02:13:20.772Z,5.08
2023-02-28T02:15:58.488Z,5.03
2023-02-28T02:18:32.805Z,4.83
2023-02-28T02:21:31.175Z,4.90
2023-02-28T02:24:29.775Z,4.95
2023-02-28T02:27:05.736Z,5.06
2023-02-28T02:30:12.049Z,4.94
2023-02-28T02:33:05.538Z,4.76
2023-02-28T02:35:40.940Z,4.64
2023-02-28T02:38:16.622Z,4.79
2023-02-28T02:40:49.692Z,4.72
2023-02-28T02:43:22.102Z,4.66
2023-02-28T02:45:54.189Z,4.67
2023-02-28T02:48:26.460Z,4.44
2023-02-28T02:50:58.571Z,4.56
2023-02-28T02:53:31.454Z,4.41
2023-02-28T02:56:02.305Z,4.34
2023-02-28T02:58:35.771Z,4.30
2023-02-28T03:01:06.014Z,4.48
2023-02-28T03:03:35.878Z,4.46
2023-02-28T03:06:06.866Z,4.50
2023-02-28T03:08:39.232Z,4.14
2023-02-28T03:11:10.036Z,4.29
2023-02-28T03:13:56.778Z,4.35
2023-02-28T03:16:42.826Z,3.91
2023-02-28T03:19:34.306Z,4.26
2023-02-28T03:22:15.993Z,4.40
2023-02-28T03:24:51.569Z,4.43
2023-02-28T03:27:25.641Z,4.15
2023-02-28T03:29:59.240Z,4.18
2023-02-28T03:32:31.834Z,4.30
2023-02-28T03:35:08.467Z,4.41
2023-02-28T03:37:41.445Z,4.17
2023-02-28T03:40:13.677Z,4.14
2023-02-28T03:42:44.936Z,4.08
2023-02-28T03:45:16.167Z,4.28
2023-02-28T03:47:49.268Z,4.19
2023-02-28T03:50:20.788Z,4.15
2023-02-28T03:52:54.968Z,4.05
2023-02-28T03:55:23.094Z,3.89
2023-02-28T03:58:00.201Z,3.85
2023-02-28T04:00:30.902Z,4.10
2023-02-28T04:02:58.531Z,3.84
2023-02-28T04:05:26.005Z,3.80
2023-02-28T04:07:55.049Z,3.90
2023-02-28T04:10:22.658Z,3.79
2023-02-28T04:12:50.126Z,3.72
2023-02-28T04:15:17.556Z,3.93
2023-02-28T04:17:45.067Z,3.94
2023-02-28T04:20:13.244Z,3.74
2023-02-28T04:22:40.710Z,3.67
2023-02-28T04:25:10.347Z,3.83
2023-02-28T04:27:37.891Z,3.70
2023-02-28T04:30:06.112Z,3.76
2023-02-28T04:32:33.609Z,3.67
2023-02-28T04:35:01.149Z,3.69
2023-02-28T04:37:29.870Z,3.61
2023-02-28T04:39:57.348Z,3.55
2023-02-28T04:42:26.114Z,3.41
2023-02-28T04:44:53.553Z,3.72
2023-02-28T04:47:21.020Z,3.83
2023-02-28T04:49:48.508Z,3.74
2023-02-28T04:52:15.945Z,4.03
2023-02-28T04:54:43.388Z,3.83
2023-02-28T04:57:10.787Z,3.66
2023-02-28T04:59:39.609Z,3.78
2023-02-28T05:02:07.887Z,3.80
2023-02-28T05:04:36.492Z,3.63
2023-02-28T05:07:04.998Z,3.67
2023-02-28T05:09:33.927Z,3.36
2023-02-28T05:12:01.394Z,3.50
2023-02-28T05:14:28.836Z,3.53
2023-02-28T05:16:57.657Z,3.38
2023-02-28T05:19:25.092Z,3.30
2023-02-28T05:21:54.155Z,3.37
2023-02-28T05:24:23.821Z,3.20
2023-02-28T05:26:53.558Z,3.48
2023-02-28T05:29:21.222Z,3.54
2023-02-28T05:31:49.375Z,3.17
2023-02-28T05:34:18.438Z,3.47
2023-02-28T05:36:46.067Z,3.40
2023-02-28T05:39:14.440Z,3.52
2023-02-28T05:41:42.744Z,3.47
2023-02-28T05:44:10.668Z,3.50
2023-02-28T05:46:38.115Z,3.29
2023-02-28T05:49:06.104Z,3.42
2023-02-28T05:51:35.320Z,3.59
2023-02-28T05:54:03.232Z,3.65
2023-02-28T05:56:31.157Z,3.71
2023-02-28T05:58:58.655Z,3.60
2023-02-28T06:01:34.095Z,3.51
2023-02-28T06:04:02.140Z,3.24
2023-02-28T06:06:31.012Z,3.56
2023-02-28T06:08:59.781Z,3.70
2023-02-28T06:11:29.058Z,3.69
2023-02-28T06:13:57.573Z,3.56
2023-02-28T06:16:25.626Z,3.34
2023-02-28T06:18:53.574Z,3.20
2023-02-28T06:21:21.085Z,3.27
2023-02-28T06:23:48.580Z,3.33
2023-02-28T06:26:17.624Z,3.41
2023-02-28T06:28:45.051Z,3.50
2023-02-28T06:31:14.825Z,3.36
2023-02-28T06:33:43.428Z,3.19
2023-02-28T06:36:13.464Z,3.29
2023-02-28T06:38:41.959Z,3.12
2023-02-28T06:41:10.293Z,3.38
2023-02-28T06:43:42.037Z,3.21
2023-02-28T06:46:13.298Z,3.36
2023-02-28T06:48:41.072Z,3.43
2023-02-28T06:51:10.691Z,3.61
2023-02-28T06:53:39.529Z,3.51
2023-02-28T06:56:08.353Z,3.70
2023-02-28T06:58:36.106Z,3.73
2023-02-28T07:01:05.814Z,3.81
2023-02-28T07:03:34.541Z,3.68
2023-02-28T07:06:02.745Z,3.48
2023-02-28T07:08:30.586Z,3.74
2023-02-28T07:10:58.303Z,3.88
2023-02-28T07:13:26.237Z,3.80
2023-02-28T07:15:57.939Z,3.95
2023-02-28T07:18:26.995Z,3.78
2023-02-28T07:20:55.088Z,3.97
2023-02-28T07:23:23.409Z,3.78
2023-02-28T07:25:52.935Z,3.82
2023-02-28T07:28:20.485Z,3.84
2023-02-28T07:30:49.075Z,3.97
2023-02-28T07:33:16.667Z,3.97
2023-02-28T07:35:45.830Z,4.26
2023-02-28T07:38:14.636Z,4.36
2023-02-28T07:40:42.228Z,4.46
2023-02-28T07:43:09.801Z,4.43
2023-02-28T07:45:37.337Z,4.49
2023-02-28T07:48:05.057Z,4.43
2023-02-28T07:50:32.616Z,4.59
2023-02-28T07:53:01.450Z,4.09
2023-02-28T07:55:29.100Z,4.46
2023-02-28T07:57:56.605Z,4.85
2023-02-28T08:00:25.160Z,4.91
2023-02-28T08:02:52.916Z,4.91
2023-02-28T08:05:22.207Z,4.90
2023-02-28T08:07:51.420Z,4.89
2023-02-28T08:10:20.390Z,4.90
2023-02-28T08:12:47.835Z,5.05
2023-02-28T08:15:15.431Z,5.19
2023-02-28T08:17:42.981Z,5.30
2023-02-28T08:20:12.151Z,5.07
2023-02-28T08:22:39.582Z,5.18
2023-02-28T08:25:08.509Z,5.62
2023-02-28T08:27:37.557Z,5.71
2023-02-28T08:30:05.774Z,5.67
2023-02-28T08:32:34.305Z,5.80
2023-02-28T08:35:02.856Z,5.39
2023-02-28T08:37:30.347Z,4.91
2023-02-28T08:39:57.878Z,5.47
2023-02-28T08:42:25.812Z,5.72
2023-02-28T08:44:54.629Z,5.93
2023-02-28T08:47:22.056Z,6.00
2023-02-28T08:49:49.524Z,5.62
2023-02-28T08:52:17.051Z,5.95
2023-02-28T08:54:44.474Z,5.97
2023-02-28T08:57:11.983Z,5.73
2023-02-28T08:59:39.574Z,5.43
2023-02-28T09:02:08.355Z,5.75
2023-02-28T09:04:36.016Z,5.86
2023-02-28T09:07:03.607Z,5.77
2023-02-28T09:09:31.064Z,5.68
2023-02-28T09:11:58.796Z,6.30
2023-02-28T09:14:26.456Z,5.84
2023-02-28T09:16:53.980Z,6.07
2023-02-28T09:19:23.259Z,6.60
2023-02-28T09:21:50.926Z,6.08
2023-02-28T09:24:19.110Z,5.94
2023-02-28T09:26:56.739Z,5.67
2023-02-28T09:29:31.790Z,5.48
2023-02-28T09:31:59.837Z,6.02
2023-02-28T09:34:31.788Z,6.14
2023-02-28T09:36:59.537Z,6.07
2023-02-28T09:39:27.681Z,6.33
2023-02-28T09:41:56.953Z,6.14
2023-02-28T09:44:30.957Z,6.24
2023-02-28T09:47:02.625Z,6.57
2023-02-28T09:49:38.556Z,6.24
2023-02-28T09:52:10.075Z,6.27
2023-02-28T09:54:39.741Z,6.38
2023-02-28T09:57:11.245Z,6.35
2023-02-28T09:59:51.683Z,4.89
2023-02-28T10:02:43.356Z,5.52
2023-02-28T10:05:15.575Z,5.74
2023-02-28T10:08:02.758Z,6.15
2023-02-28T10:10:34.860Z,6.36
2023-02-28T10:13:06.801Z,6.17
2023-02-28T10:15:37.281Z,5.21
2023-02-28T10:18:09.800Z,5.33
2023-02-28T10:20:42.091Z,5.69
2023-02-28T10:23:16.679Z,5.63
2023-02-28T10:25:49.197Z,5.24
2023-02-28T10:28:18.872Z,4.60
2023-02-28T10:30:49.361Z,4.75
2023-02-28T10:33:23.970Z,5.47
2023-02-28T10:35:53.352Z,4.86
2023-02-28T10:38:23.450Z,4.55
2023-02-28T10:40:51.014Z,5.26
2023-02-28T10:43:25.157Z,5.13
2023-02-28T10:46:00.666Z,4.73
2023-02-28T10:48:33.772Z,4.99
2023-02-28T10:51:05.037Z,6.29
2023-02-28T10:53:44.867Z,5.79
2023-02-28T10:56:24.362Z,4.66
2023-02-28T10:58:55.693Z,5.97
2023-02-28T11:01:26.105Z,5.27
2023-02-28T11:03:54.621Z,5.56
2023-02-28T11:06:25.227Z,5.52
2023-02-28T11:08:55.600Z,5.42
2023-02-28T11:11:26.226Z,4.63
2023-02-28T11:13:55.970Z,4.63
2023-02-28T11:16:33.618Z,5.14
2023-02-28T11:19:01.514Z,5.07
2023-02-28T11:21:34.399Z,5.29
2023-02-28T11:24:08.650Z,6.72
2023-02-28T11:26:41.745Z,6.87
2023-02-28T11:29:20.042Z,7.57
2023-02-28T11:32:03.824Z,6.49
2023-02-28T11:34:31.764Z,6.05
2023-02-28T11:37:05.814Z,5.35
2023-02-28T11:39:34.450Z,5.34
2023-02-28T11:42:16.344Z,5.52
2023-02-28T11:45:04.384Z,6.36
2023-02-28T11:47:40.462Z,6.95
2023-02-28T11:50:33.359Z,6.06
2023-02-28T11:53:06.891Z,5.48
2023-02-28T11:55:38.527Z,5.28
2023-02-28T11:58:28.758Z,6.14
2023-02-28T12:01:09.000Z,5.65
2023-02-28T12:03:46.260Z,5.56
2023-02-28T12:06:23.143Z,5.47
2023-02-28T12:09:02.953Z,5.26
2023-02-28T12:11:42.638Z,5.45
2023-02-28T12:14:30.082Z,5.34
2023-02-28T12:17:08.466Z,5.74
2023-02-28T12:19:48.560Z,6.52
2023-02-28T12:22:30.601Z,6.76
2023-02-28T12:25:28.200Z,5.25
2023-02-28T12:27:56.268Z,5.61
2023-02-28T12:30:27.070Z,5.50
2023-02-28T12:32:58.611Z,5.22
2023-02-28T12:35:30.179Z,5.70
2023-02-28T12:38:01.709Z,6.16
2023-02-28T12:40:41.636Z,7.31
2023-02-28T12:43:11.441Z,6.28
2023-02-28T12:45:43.922Z,5.81
2023-02-28T12:48:17.024Z,6.67
2023-02-28T12:50:45.110Z,5.84
2023-02-28T12:53:20.510Z,5.91
2023-02-28T12:55:54.973Z,5.58
2023-02-28T12:58:29.718Z,5.48
2023-02-28T13:01:17.816Z,6.39
2023-02-28T13:04:07.643Z,5.95
2023-02-28T13:06:47.439Z,6.04
2023-02-28T13:09:16.597Z,6.39
2023-02-28T13:11:49.841Z,7.42
2023-02-28T13:14:28.899Z,7.83
2023-02-28T13:17:03.910Z,7.89
2023-02-28T13:19:34.224Z,8.06
2023-02-28T13:22:02.571Z,7.11
2023-02-28T13:24:46.733Z,8.11
2023-02-28T13:27:34.391Z,6.35
2023-02-28T13:30:03.627Z,5.59
2023-02-28T13:32:40.590Z,5.97
2023-02-28T13:35:17.070Z,6.33
2023-02-28T13:37:45.686Z,5.80
2023-02-28T13:40:31.689Z,5.66
2023-02-28T13:43:00.548Z,5.73
2023-02-28T13:45:29.208Z,6.45
2023-02-28T13:48:01.534Z,5.55
2023-02-28T13:50:34.748Z,6.77
2023-02-28T13:53:36.700Z,7.37
2023-02-28T13:56:25.302Z,7.78
2023-02-28T13:58:57.562Z,6.71
2023-02-28T14:01:40.033Z,6.96
2023-02-28T14:04:40.007Z,7.41
2023-02-28T14:07:09.202Z,7.21
2023-02-28T14:09:40.513Z,6.35
2023-02-28T14:12:45.982Z,6.47
2023-02-28T14:15:40.151Z,7.37
2023-02-28T14:18:19.324Z,6.52
2023-02-28T14:20:48.997Z,7.21
2023-02-28T14:23:32.438Z,6.72
2023-02-28T14:26:07.904Z,5.72
2023-02-28T14:28:51.874Z,5.97
2023-02-28T14:31:27.495Z,6.20
2023-02-28T14:34:19.052Z,5.75
2023-02-28T14:36:47.860Z,7.05
2023-02-28T14:39:16.891Z,7.42
2023-02-28T14:41:46.197Z,6.90
2023-02-28T14:44:19.692Z,6.50
2023-02-28T14:46:51.353Z,5.92
2023-02-28T14:49:21.697Z,6.43
2023-02-28T14:51:51.320Z,5.93
2023-02-28T14:54:27.025Z,6.56
2023-02-28T14:56:54.590Z,6.45
2023-02-28T14:59:27.944Z,5.91
2023-02-28T15:02:24.624Z,6.14
2023-02-28T15:04:57.747Z,6.03
2023-02-28T15:07:29.511Z,6.93
2023-02-28T15:10:10.163Z,6.43
2023-02-28T15:12:38.849Z,6.50
2023-02-28T15:15:08.781Z,6.18
2023-02-28T15:17:37.931Z,6.04
2023-02-28T15:20:06.485Z,5.72
2023-02-28T15:22:38.896Z,5.74
2023-02-28T15:25:09.173Z,6.30
2023-02-28T15:27:44.602Z,6.34
2023-02-28T15:30:18.618Z,5.92
2023-02-28T15:33:04.536Z,5.80
2023-02-28T15:35:34.480Z,5.89
2023-02-28T15:38:04.023Z,5.90
2023-02-28T15:40:33.407Z,5.93
2023-02-28T15:43:06.206Z,5.46
2023-02-28T15:45:41.898Z,5.43
2023-02-28T15:48:18.857Z,5.51
2023-02-28T15:50:48.826Z,6.10
2023-02-28T15:53:20.420Z,6.56
2023-02-28T15:55:55.417Z,7.15
2023-02-28T15:58:24.421Z,6.13
2023-02-28T16:01:03.642Z,6.46
2023-02-28T16:03:41.649Z,5.79
2023-02-28T16:06:28.081Z,5.41
2023-02-28T16:08:55.551Z,5.37
2023-02-28T16:11:23.885Z,5.50
2023-02-28T16:13:53.227Z,5.55
2023-02-28T16:16:23.302Z,5.85
2023-02-28T16:18:52.567Z,6.26
2023-02-28T16:21:20.071Z,6.85
2023-02-28T16:23:47.569Z,7.12
2023-02-28T16:26:21.539Z,6.52
2023-02-28T16:28:49.101Z,6.78
2023-02-28T16:31:17.555Z,6.39
2023-02-28T16:33:45.983Z,6.81
2023-02-28T16:36:21.097Z,6.67
2023-02-28T16:38:48.966Z,5.85
2023-02-28T16:41:20.677Z,5.72
2023-02-28T16:43:50.350Z,5.57
2023-02-28T16:46:18.799Z,5.66
2023-02-28T16:48:47.928Z,6.01
2023-02-28T16:51:16.952Z,6.64
2023-02-28T16:53:47.109Z,6.43
2023-02-28T16:56:20.636Z,5.74
2023-02-28T16:58:49.057Z,5.86
2023-02-28T17:01:17.290Z,5.30
2023-02-28T17:03:45.011Z,5.66
2023-02-28T17:06:21.127Z,5.49
2023-02-28T17:08:49.990Z,5.69
2023-02-28T17:11:17.436Z,5.57
2023-02-28T17:13:44.912Z,5.34
2023-02-28T17:16:28.017Z,6.28
2023-02-28T17:18:57.480Z,6.66
2023-02-28T17:21:25.142Z,6.69
2023-02-28T17:23:53.909Z,6.73
2023-02-28T17:26:23.242Z,6.76
2023-02-28T17:28:51.865Z,6.69
2023-02-28T17:31:19.879Z,6.87
2023-02-28T17:33:47.318Z,6.74
2023-02-28T17:36:16.493Z,6.42
2023-02-28T17:38:44.294Z,6.79
2023-02-28T17:41:13.596Z,6.95
2023-02-28T17:43:41.847Z,6.93
2023-02-28T17:46:19.201Z,6.66
2023-02-28T17:48:46.755Z,6.59
2023-02-28T17:51:15.454Z,6.66
2023-02-28T17:53:43.247Z,6.69
2023-02-28T17:56:16.107Z,6.48
2023-02-28T17:58:43.898Z,6.76
2023-02-28T18:01:12.833Z,6.69
2023-02-28T18:03:40.853Z,6.77
2023-02-28T18:06:11.921Z,6.76
2023-02-28T18:08:39.364Z,6.67
2023-02-28T18:11:06.898Z,6.59
2023-02-28T18:13:35.657Z,6.56
2023-02-28T18:16:03.108Z,6.37
2023-02-28T18:18:30.607Z,6.47
2023-02-28T18:20:58.011Z,6.39
2023-02-28T18:23:25.462Z,6.35
2023-02-28T18:25:53.495Z,6.38
2023-02-28T18:28:20.962Z,6.23
2023-02-28T18:30:49.774Z,6.30
2023-02-28T18:33:17.635Z,6.47
2023-02-28T18:35:45.366Z,6.25
2023-02-28T18:38:15.867Z,6.35
2023-02-28T18:40:44.527Z,6.40
2023-02-28T18:43:11.940Z,6.38
2023-02-28T18:45:40.341Z,6.11
2023-02-28T18:48:09.161Z,6.29
2023-02-28T18:50:38.600Z,6.36
2023-02-28T18:53:06.041Z,6.37
2023-02-28T18:55:34.125Z,6.38
2023-02-28T18:58:01.756Z,6.23
2023-02-28T19:00:29.241Z,6.30
2023-02-28T19:02:56.706Z,6.20
2023-02-28T19:05:25.585Z,6.34
2023-02-28T19:07:53.026Z,6.19
2023-02-28T19:10:20.540Z,6.15
2023-02-28T19:12:48.025Z,6.04
2023-02-28T19:15:15.432Z,6.10
2023-02-28T19:17:42.974Z,6.01
2023-02-28T19:20:11.791Z,6.04
2023-02-28T19:22:41.088Z,6.12
2023-02-28T19:25:09.505Z,6.03
2023-02-28T19:27:37.259Z,6.00
2023-02-28T19:30:06.526Z,5.96
2023-02-28T19:32:34.984Z,5.62
2023-02-28T19:35:03.178Z,5.82
2023-02-28T19:37:30.871Z,5.94
2023-02-28T19:39:59.658Z,6.08
2023-02-28T19:42:29.862Z,6.03
2023-02-28T19:44:57.276Z,5.99
2023-02-28T19:47:24.714Z,5.69
2023-02-28T19:49:54.706Z,5.62
2023-02-28T19:52:22.558Z,5.59
2023-02-28T19:54:50.249Z,5.46
2023-02-28T19:57:19.005Z,5.28
2023-02-28T19:59:46.650Z,5.26
2023-02-28T20:02:15.281Z,5.31
2023-02-28T20:04:43.276Z,5.20
2023-02-28T20:07:10.746Z,5.02
2023-02-28T20:09:38.259Z,5.17
2023-02-28T20:12:09.305Z,5.20
2023-02-28T20:14:43.333Z,4.98
2023-02-28T20:17:11.068Z,4.71
2023-02-28T20:19:38.927Z,4.79
2023-02-28T20:22:08.024Z,4.77
2023-02-28T20:24:35.481Z,4.73
2023-02-28T20:27:03.054Z,4.77
2023-02-28T20:29:30.781Z,4.71
2023-02-28T20:31:59.619Z,4.66
2023-02-28T20:34:27.262Z,4.50
2023-02-28T20:36:56.463Z,4.63
2023-02-28T20:39:24.052Z,4.68
2023-02-28T20:41:51.579Z,4.75
2023-02-28T20:44:19.376Z,4.73
2023-02-28T20:46:46.786Z,4.73
2023-02-28T20:49:16.083Z,4.54
2023-02-28T20:51:43.518Z,4.63
2023-02-28T20:54:12.051Z,4.52
2023-02-28T20:56:39.554Z,4.43
2023-02-28T20:59:06.950Z,4.38
2023-02-28T21:01:34.518Z,4.49
2023-02-28T21:04:05.984Z,4.19
2023-02-28T21:06:38.172Z,4.29
2023-02-28T21:09:07.287Z,4.37
2023-02-28T21:11:37.844Z,4.17
2023-02-28T21:14:07.327Z,4.17
2023-02-28T21:16:37.597Z,4.32
2023-02-28T21:19:05.440Z,3.94
2023-02-28T21:21:35.985Z,4.05
2023-02-28T21:24:03.439Z,4.04
2023-02-28T21:26:31.611Z,4.01
2023-02-28T21:29:01.664Z,4.08
2023-02-28T21:31:32.109Z,3.87
2023-02-28T21:34:01.919Z,3.85
2023-02-28T21:36:33.012Z,3.86
2023-02-28T21:39:07.789Z,3.66
2023-02-28T21:41:35.742Z,3.73
2023-02-28T21:44:03.322Z,3.84
2023-02-28T21:46:32.188Z,3.96
2023-02-28T21:48:59.887Z,3.63
2023-02-28T21:51:31.010Z,3.66
2023-02-28T21:53:59.658Z,3.74
2023-02-28T21:56:30.686Z,3.90
2023-02-28T21:59:01.155Z,4.04
2023-02-28T22:01:32.314Z,4.01
2023-02-28T22:04:00.558Z,4.09
2023-02-28T22:06:30.366Z,3.81
2023-02-28T22:09:00.519Z,3.70
2023-02-28T22:11:30.051Z,3.64
2023-02-28T22:13:58.963Z,3.67
2023-02-28T22:16:33.187Z,3.65
2023-02-28T22:19:07.452Z,3.75
2023-02-28T22:21:35.617Z,3.71
2023-02-28T22:24:03.878Z,3.53
2023-02-28T22:26:33.151Z,3.60
2023-02-28T22:29:01.138Z,3.53
2023-02-28T22:31:31.305Z,3.36
2023-02-28T22:34:01.369Z,3.48
2023-02-28T22:36:30.204Z,3.53
2023-02-28T22:39:00.707Z,3.66
2023-02-28T22:41:28.854Z,3.12
2023-02-28T22:44:00.783Z,3.40
2023-02-28T22:46:31.183Z,3.46
2023-02-28T22:48:59.673Z,3.65
2023-02-28T22:51:28.434Z,3.19
2023-02-28T22:53:58.141Z,3.15
2023-02-28T22:56:27.669Z,2.95
2023-02-28T22:58:58.103Z,3.11
2023-02-28T23:01:27.266Z,3.02
2023-02-28T23:03:55.801Z,3.06
2023-02-28T23:06:25.313Z,3.18
2023-02-28T23:08:54.566Z,3.21
2023-02-28T23:11:24.702Z,3.23
2023-02-28T23:13:59.275Z,3.24
2023-02-28T23:16:31.361Z,3.13
2023-02-28T23:19:00.720Z,3.07
2023-02-28T23:21:28.930Z,3.21
2023-02-28T23:23:56.709Z,3.13
2023-02-28T23:26:24.690Z,3.25
2023-02-28T23:28:52.123Z,3.36
2023-02-28T23:31:19.606Z,3.17
2023-02-28T23:33:48.359Z,3.00
2023-02-28T23:36:17.740Z,3.05
2023-02-28T23:38:48.107Z,2.87
2023-02-28T23:41:15.918Z,3.19
2023-02-28T23:43:43.746Z,3.14
2023-02-28T23:46:12.698Z,2.21
2023-02-28T23:48:40.829Z,1.73
2023-02-28T23:51:13.594Z,2.01
2023-02-28T23:53:43.662Z,2.01
2023-02-28T23:56:14.658Z,2.22
2023-02-28T23:58:42.796Z,3.39
